Candlewick Lake, Illinois
Current Conditions -  °F | °C
As of 2:45 PM on Tuesday 21 Oct 2014 (Local Time) from KJVL Reporting Station
Overcast Overcast  
Wind Chill: 52°   Ceiling: 3000
Heat Index: 52°   Visibility: 10mi
Dew Point: 37°   Wind: 13mph
Humidity: 58%   Direction: 10°N
Pressure: 30.21"   Gusts: NA
Location:  42.409°N, 88.8277°W
Report Text: KJVL 211945Z 01011KT 10SM OVC030 11/03 A3021
Loading
Personal Weather Stations






























Interactive Weather Map
Tropical Storm Tracking
New forecast layout! Learn more

10-Day Weather Forecast

Advertisements
Track Severe Weather on mobile